createdAt,value
2018-12-16T00:00:11.725Z,26.20
2018-12-16T00:01:11.712Z,28.00
2018-12-16T00:02:11.699Z,26.40
2018-12-16T00:03:11.696Z,26.30
2018-12-16T00:04:11.684Z,28.00
2018-12-16T00:05:11.669Z,25.00
2018-12-16T00:06:11.659Z,24.50
2018-12-16T00:07:11.658Z,26.40
2018-12-16T00:08:11.649Z,27.30
2018-12-16T00:09:11.630Z,26.20
2018-12-16T00:10:11.616Z,24.20
2018-12-16T00:11:11.602Z,24.60
2018-12-16T00:12:11.602Z,25.80
2018-12-16T00:13:11.590Z,26.20
2018-12-16T00:14:11.591Z,26.10
2018-12-16T00:15:11.571Z,26.50
2018-12-16T00:16:11.571Z,23.30
2018-12-16T00:17:11.540Z,27.60
2018-12-16T00:18:11.536Z,27.20
2018-12-16T00:19:11.540Z,27.80
2018-12-16T00:20:11.505Z,26.70
2018-12-16T00:21:11.516Z,24.00
2018-12-16T00:22:11.488Z,28.20
2018-12-16T00:23:11.476Z,25.30
2018-12-16T00:24:11.489Z,26.70
2018-12-16T00:25:11.466Z,26.80
2018-12-16T00:26:11.449Z,22.90
2018-12-16T00:27:11.441Z,25.50
2018-12-16T00:28:11.425Z,25.50
2018-12-16T00:29:11.414Z,24.60
2018-12-16T00:30:11.416Z,25.10
2018-12-16T00:31:11.392Z,24.20
2018-12-16T00:32:11.390Z,26.00
2018-12-16T00:33:11.377Z,26.00
2018-12-16T00:34:11.367Z,24.40
2018-12-16T00:35:11.365Z,25.80
2018-12-16T00:36:11.345Z,26.10
2018-12-16T00:37:11.339Z,26.40
2018-12-16T00:38:11.326Z,25.20
2018-12-16T00:39:11.316Z,26.40
2018-12-16T00:40:11.299Z,30.60
2018-12-16T00:41:11.311Z,25.00
2018-12-16T00:42:11.280Z,26.10
2018-12-16T00:43:11.265Z,26.90
2018-12-16T00:44:11.261Z,25.70
2018-12-16T00:45:11.250Z,26.90
2018-12-16T00:46:11.251Z,25.40
2018-12-16T00:47:11.232Z,25.50
2018-12-16T00:48:11.213Z,27.40
2018-12-16T00:49:11.203Z,25.80
2018-12-16T00:50:11.197Z,23.00
2018-12-16T00:51:11.199Z,26.60
2018-12-16T00:52:11.172Z,25.30
2018-12-16T00:53:11.162Z,23.20
2018-12-16T00:54:11.155Z,24.70
2018-12-16T00:55:11.139Z,26.80
2018-12-16T00:56:11.145Z,24.30
2018-12-16T00:57:11.120Z,25.00
2018-12-16T00:58:11.108Z,23.80
2018-12-16T00:59:11.094Z,25.50
2018-12-16T01:00:11.092Z,24.10
2018-12-16T01:01:11.091Z,23.40
2018-12-16T01:02:11.079Z,24.60
2018-12-16T01:03:11.060Z,24.30
2018-12-16T01:04:11.056Z,25.30
2018-12-16T01:05:11.034Z,25.00
2018-12-16T01:06:11.041Z,24.30
2018-12-16T01:07:11.017Z,22.40
2018-12-16T01:08:11.014Z,22.30
2018-12-16T01:09:10.990Z,26.50
2018-12-16T01:10:10.983Z,26.60
2018-12-16T01:11:10.966Z,27.30
2018-12-16T01:12:10.967Z,24.20
2018-12-16T01:13:10.950Z,24.40
2018-12-16T01:14:10.953Z,25.60
2018-12-16T01:15:10.932Z,23.40
2018-12-16T01:16:10.916Z,24.10
2018-12-16T01:17:10.905Z,24.00
2018-12-16T01:18:10.904Z,23.30
2018-12-16T01:19:10.893Z,23.30
2018-12-16T01:20:10.891Z,23.60
2018-12-16T01:21:10.866Z,25.50
2018-12-16T01:22:10.856Z,20.80
2018-12-16T01:23:10.841Z,22.10
2018-12-16T01:24:10.843Z,20.90
2018-12-16T01:25:10.835Z,22.70
2018-12-16T01:26:10.813Z,23.20
2018-12-16T01:27:10.807Z,23.50
2018-12-16T01:28:10.791Z,22.60
2018-12-16T01:29:10.780Z,23.60
2018-12-16T01:30:10.779Z,23.90
2018-12-16T01:31:10.753Z,21.90
2018-12-16T01:32:10.751Z,20.70
2018-12-16T01:33:10.738Z,24.30
2018-12-16T01:34:10.727Z,23.20
2018-12-16T01:35:10.732Z,22.80
2018-12-16T01:36:10.713Z,22.90
2018-12-16T01:37:10.693Z,24.00
2018-12-16T01:38:10.686Z,23.70
2018-12-16T01:39:10.676Z,25.40
2018-12-16T01:40:10.671Z,22.20
2018-12-16T01:41:10.656Z,21.40
2018-12-16T01:42:10.640Z,22.30
2018-12-16T01:43:10.632Z,21.50
2018-12-16T01:44:10.625Z,23.50
2018-12-16T01:45:10.622Z,23.10
2018-12-16T01:46:10.600Z,24.90
2018-12-16T01:47:10.593Z,22.30
2018-12-16T01:48:10.584Z,22.10
2018-12-16T01:49:10.565Z,23.10
2018-12-16T01:50:10.555Z,23.00
2018-12-16T01:51:10.553Z,24.00
2018-12-16T01:52:10.541Z,24.00
2018-12-16T01:53:10.542Z,25.30
2018-12-16T01:54:10.514Z,25.90
2018-12-16T01:55:10.500Z,27.00
2018-12-16T01:56:10.497Z,24.20
2018-12-16T01:57:10.495Z,25.10
2018-12-16T01:58:10.473Z,30.10
2018-12-16T01:59:10.470Z,23.50
2018-12-16T02:00:10.461Z,23.60
2018-12-16T02:01:10.439Z,26.70
2018-12-16T02:02:10.429Z,26.50
2018-12-16T02:03:10.415Z,26.50
2018-12-16T02:04:10.415Z,24.30
2018-12-16T02:05:10.404Z,29.30
2018-12-16T02:06:10.402Z,26.50
2018-12-16T02:07:10.382Z,26.40
2018-12-16T02:08:10.365Z,25.90
2018-12-16T02:09:10.360Z,26.40
2018-12-16T02:10:10.351Z,29.50
2018-12-16T02:11:10.356Z,27.10
2018-12-16T02:12:10.332Z,27.00
2018-12-16T02:13:10.313Z,29.20
2018-12-16T02:14:10.304Z,27.90
2018-12-16T02:15:10.289Z,29.80
2018-12-16T02:16:10.288Z,29.30
2018-12-16T02:17:10.284Z,28.30
2018-12-16T02:18:10.268Z,27.70
2018-12-16T02:19:10.257Z,30.30
2018-12-16T02:20:10.242Z,26.60
2018-12-16T02:21:10.233Z,27.30
2018-12-16T02:22:10.232Z,26.40
2018-12-16T02:23:10.210Z,28.60
2018-12-16T02:24:10.208Z,27.90
2018-12-16T02:25:10.190Z,28.70
2018-12-16T02:26:10.176Z,27.50
2018-12-16T02:27:10.238Z,29.00
2018-12-16T02:28:10.172Z,27.40
2018-12-16T02:29:10.149Z,27.60
2018-12-16T02:30:10.137Z,28.60
2018-12-16T02:31:10.129Z,28.90
2018-12-16T02:32:10.111Z,28.50
2018-12-16T02:33:10.118Z,29.30
2018-12-16T02:34:10.092Z,29.80
2018-12-16T02:35:10.078Z,32.40
2018-12-16T02:36:10.084Z,29.40
2018-12-16T02:37:10.066Z,32.30
2018-12-16T02:38:10.053Z,31.20
2018-12-16T02:39:10.059Z,31.60
2018-12-16T02:40:10.035Z,33.60
2018-12-16T02:41:10.021Z,30.60
2018-12-16T02:42:10.013Z,34.00
2018-12-16T02:43:10.003Z,31.10
2018-12-16T02:44:09.993Z,31.80
2018-12-16T02:45:09.995Z,31.00
2018-12-16T02:46:09.970Z,28.60
2018-12-16T02:47:09.956Z,29.00
2018-12-16T02:48:09.949Z,33.30
2018-12-16T02:49:09.940Z,31.80
2018-12-16T02:50:09.927Z,31.50
2018-12-16T02:51:09.939Z,31.30
2018-12-16T02:52:09.916Z,29.90
2018-12-16T02:53:09.893Z,31.80
2018-12-16T02:54:09.884Z,29.50
2018-12-16T02:55:09.870Z,31.30
2018-12-16T02:56:11.469Z,27.90
2018-12-16T02:57:09.852Z,30.10
2018-12-16T02:58:09.867Z,30.50
2018-12-16T02:59:09.826Z,31.00
2018-12-16T03:00:09.832Z,31.30
2018-12-16T03:01:09.832Z,31.40
2018-12-16T03:02:09.804Z,31.70
2018-12-16T03:03:09.797Z,31.40
2018-12-16T03:04:09.773Z,32.90
2018-12-16T03:05:09.771Z,33.00
2018-12-16T03:06:09.776Z,32.40
2018-12-16T03:07:09.742Z,29.60
2018-12-16T03:08:09.738Z,33.40
2018-12-16T03:09:09.728Z,30.30
2018-12-16T03:10:09.715Z,33.70
2018-12-16T03:11:09.707Z,31.40
2018-12-16T03:12:09.700Z,30.70
2018-12-16T03:13:09.695Z,33.80
2018-12-16T03:14:09.672Z,32.70
2018-12-16T03:15:09.665Z,31.50
2018-12-16T03:16:09.668Z,33.60
2018-12-16T03:17:09.639Z,33.60
2018-12-16T03:18:09.640Z,31.70
2018-12-16T03:19:09.617Z,32.60
2018-12-16T03:20:09.613Z,34.20
2018-12-16T03:21:09.602Z,31.10
2018-12-16T03:22:09.603Z,30.30
2018-12-16T03:23:12.531Z,31.10
2018-12-16T03:24:09.560Z,33.60
2018-12-16T03:25:09.570Z,32.00
2018-12-16T03:26:09.547Z,33.50
2018-12-16T03:27:09.535Z,31.50
2018-12-16T03:28:09.545Z,32.70
2018-12-16T03:29:09.514Z,33.30
2018-12-16T03:30:09.515Z,32.00
2018-12-16T03:31:09.489Z,31.70
2018-12-16T03:32:09.487Z,32.50
2018-12-16T03:33:09.478Z,34.60
2018-12-16T03:34:09.479Z,32.50
2018-12-16T03:35:09.453Z,31.40
2018-12-16T03:36:09.436Z,29.50
2018-12-16T03:37:09.429Z,33.40
2018-12-16T03:38:09.417Z,29.60
2018-12-16T03:39:09.411Z,28.40
2018-12-16T03:40:09.423Z,32.00
2018-12-16T03:41:09.389Z,33.30
2018-12-16T03:42:09.379Z,29.80
2018-12-16T03:43:09.370Z,33.10
2018-12-16T03:44:09.352Z,30.10
2018-12-16T03:45:09.346Z,28.20
2018-12-16T03:46:09.353Z,34.40
2018-12-16T03:47:09.330Z,32.00
2018-12-16T03:48:09.310Z,31.20
2018-12-16T03:49:09.300Z,33.10
2018-12-16T03:50:09.291Z,33.00
2018-12-16T03:51:09.289Z,33.90
2018-12-16T03:52:09.276Z,31.10
2018-12-16T03:53:09.262Z,30.10
2018-12-16T03:54:09.254Z,31.70
2018-12-16T03:55:09.246Z,28.40
2018-12-16T03:56:09.249Z,31.50
2018-12-16T03:57:09.236Z,33.60
2018-12-16T03:58:09.214Z,32.10
2018-12-16T03:59:09.195Z,30.40
2018-12-16T04:00:09.197Z,29.30
2018-12-16T04:01:09.185Z,30.40
2018-12-16T04:02:09.177Z,29.90
2018-12-16T04:03:09.168Z,32.00
2018-12-16T04:04:09.151Z,27.50
2018-12-16T04:05:09.139Z,29.70
2018-12-16T04:06:09.130Z,29.40
2018-12-16T04:07:09.138Z,28.90
2018-12-16T04:08:09.109Z,29.30
2018-12-16T04:09:09.093Z,30.30
2018-12-16T04:10:09.084Z,30.70
2018-12-16T04:11:09.070Z,28.20
2018-12-16T04:12:09.086Z,30.50
2018-12-16T04:13:09.063Z,29.70
2018-12-16T04:14:09.047Z,30.00
2018-12-16T04:15:09.046Z,29.80
2018-12-16T04:16:09.017Z,30.70
2018-12-16T04:17:09.010Z,29.20
2018-12-16T04:18:09.025Z,28.00
2018-12-16T04:19:08.994Z,30.10
2018-12-16T04:20:08.993Z,31.10
2018-12-16T04:21:08.967Z,32.40
2018-12-16T04:22:08.954Z,27.20
2018-12-16T04:23:08.954Z,29.40
2018-12-16T04:24:08.940Z,29.50
2018-12-16T04:25:08.926Z,28.90
2018-12-16T04:26:08.927Z,31.30
2018-12-16T04:27:08.907Z,32.80
2018-12-16T04:28:09.413Z,32.60
2018-12-16T04:29:08.893Z,32.30
2018-12-16T04:30:08.872Z,29.40
2018-12-16T04:31:08.869Z,29.30
2018-12-16T04:32:08.856Z,31.10
2018-12-16T04:33:08.842Z,35.10
2018-12-16T04:34:08.830Z,29.40
2018-12-16T04:35:08.817Z,29.80
2018-12-16T04:36:08.830Z,31.30
2018-12-16T04:37:08.808Z,29.70
2018-12-16T04:38:08.797Z,29.10
2018-12-16T04:39:08.785Z,32.60
2018-12-16T04:40:08.766Z,30.80
2018-12-16T04:41:08.756Z,31.00
2018-12-16T04:42:08.759Z,33.10
2018-12-16T04:43:08.735Z,32.00
2018-12-16T04:44:08.741Z,33.90
2018-12-16T04:45:08.719Z,28.70
2018-12-16T04:46:08.719Z,29.80
2018-12-16T04:47:08.697Z,27.60
2018-12-16T04:48:08.680Z,30.20
2018-12-16T04:49:08.673Z,30.20
2018-12-16T04:50:08.663Z,30.70
2018-12-16T04:51:08.673Z,28.90
2018-12-16T04:52:08.636Z,30.00
2018-12-16T04:53:08.629Z,30.00
2018-12-16T04:54:08.618Z,31.00
2018-12-16T04:55:08.611Z,28.30
2018-12-16T04:56:08.616Z,32.10
2018-12-16T04:57:08.589Z,30.00
2018-12-16T04:58:08.582Z,27.00
2018-12-16T04:59:08.572Z,28.00
2018-12-16T05:00:08.644Z,26.80
2018-12-16T05:01:08.544Z,29.90
2018-12-16T05:02:08.574Z,29.10
2018-12-16T05:03:08.522Z,29.20
2018-12-16T05:04:08.523Z,28.40
2018-12-16T05:05:08.517Z,29.20
2018-12-16T05:06:08.495Z,30.60
2018-12-16T05:07:08.483Z,33.30
2018-12-16T05:08:08.490Z,29.60
2018-12-16T05:09:08.463Z,30.20
2018-12-16T05:10:08.469Z,28.80
2018-12-16T05:11:08.452Z,29.70
2018-12-16T05:12:08.427Z,28.30
2018-12-16T05:13:08.423Z,28.10
2018-12-16T05:14:08.405Z,33.40
2018-12-16T05:15:08.398Z,28.40
2018-12-16T05:16:08.438Z,27.80
2018-12-16T05:17:08.389Z,28.80
2018-12-16T05:18:08.376Z,28.20
2018-12-16T05:19:08.364Z,30.60
2018-12-16T05:20:08.347Z,28.90
2018-12-16T05:21:08.341Z,29.00
2018-12-16T05:22:08.330Z,30.70
2018-12-16T05:23:08.316Z,28.90
2018-12-16T05:24:08.305Z,29.00
2018-12-16T05:25:08.289Z,28.50
2018-12-16T05:26:08.292Z,31.30
2018-12-16T05:27:08.273Z,27.80
2018-12-16T05:28:08.263Z,31.30
2018-12-16T05:29:08.255Z,28.90
2018-12-16T05:30:08.250Z,28.60
2018-12-16T05:31:08.248Z,31.20
2018-12-16T05:32:08.223Z,29.80
2018-12-16T05:33:08.207Z,30.70
2018-12-16T05:34:08.194Z,28.00
2018-12-16T05:35:08.189Z,30.60
2018-12-16T05:36:08.181Z,30.60
2018-12-16T05:37:08.185Z,28.70
2018-12-16T05:38:08.153Z,29.20
2018-12-16T05:39:08.146Z,28.50
2018-12-16T05:40:08.147Z,28.80
2018-12-16T05:41:08.138Z,31.50
2018-12-16T05:42:08.119Z,30.80
2018-12-16T05:43:08.105Z,29.20
2018-12-16T05:44:08.094Z,28.40
2018-12-16T05:45:08.093Z,28.00
2018-12-16T05:46:08.079Z,29.50
2018-12-16T05:47:08.062Z,28.70
2018-12-16T05:48:08.058Z,28.00
2018-12-16T05:49:58.989Z,29.80
2018-12-16T05:50:58.988Z,27.50
2018-12-16T05:51:58.974Z,30.00
2018-12-16T05:52:58.961Z,28.10
2018-12-16T05:53:58.956Z,30.50
2018-12-16T05:54:58.949Z,29.50
2018-12-16T05:55:58.930Z,31.30
2018-12-16T05:56:58.947Z,28.00
2018-12-16T05:57:58.916Z,29.90
2018-12-16T05:58:58.903Z,29.50
2018-12-16T05:59:58.904Z,29.70
2018-12-16T06:00:58.884Z,30.50
2018-12-16T06:01:58.914Z,30.90
2018-12-16T06:02:58.858Z,28.40
2018-12-16T06:03:58.856Z,29.20
2018-12-16T06:04:58.828Z,31.50
2018-12-16T06:05:58.822Z,26.50
2018-12-16T06:06:58.828Z,29.50
2018-12-16T06:07:58.805Z,29.40
2018-12-16T06:08:58.789Z,28.90
2018-12-16T06:09:58.781Z,33.10
2018-12-16T06:10:58.774Z,28.10
2018-12-16T06:11:58.771Z,30.10
2018-12-16T06:12:58.754Z,28.10
2018-12-16T06:13:58.751Z,28.30
2018-12-16T06:14:58.738Z,28.80
2018-12-16T06:15:58.755Z,28.80
2018-12-16T06:16:58.723Z,30.80
2018-12-16T06:17:58.698Z,29.40
2018-12-16T06:18:58.689Z,29.90
2018-12-16T06:19:58.678Z,31.00
2018-12-16T06:20:58.700Z,31.20
2018-12-16T06:21:58.659Z,29.00
2018-12-16T06:22:58.657Z,29.30
2018-12-16T06:23:58.633Z,32.30
2018-12-16T06:24:58.669Z,27.80
2018-12-16T06:25:58.617Z,29.70
2018-12-16T06:26:58.668Z,27.80
2018-12-16T06:27:58.615Z,29.60
2018-12-16T06:28:58.603Z,30.70
2018-12-16T06:29:58.588Z,31.20
2018-12-16T06:30:58.563Z,27.00
2018-12-16T06:31:58.551Z,29.30
2018-12-16T06:32:58.575Z,31.80
2018-12-16T06:33:58.545Z,29.00
2018-12-16T06:34:58.524Z,32.20
2018-12-16T06:35:58.517Z,28.90
2018-12-16T06:36:58.501Z,33.50
2018-12-16T06:37:58.507Z,31.30
2018-12-16T06:38:58.491Z,27.90
2018-12-16T06:39:58.475Z,31.40
2018-12-16T06:40:58.456Z,31.50
2018-12-16T06:41:58.448Z,30.20
2018-12-16T06:42:58.447Z,29.30
2018-12-16T06:43:58.465Z,28.60
2018-12-16T06:44:58.425Z,27.70
2018-12-16T06:45:58.410Z,29.80
2018-12-16T06:46:58.402Z,30.80
2018-12-16T06:47:58.408Z,26.90
2018-12-16T06:48:58.374Z,28.70
2018-12-16T06:49:58.368Z,29.30
2018-12-16T06:50:58.369Z,31.30
2018-12-16T06:51:58.342Z,29.20
2018-12-16T06:52:58.343Z,26.20
2018-12-16T06:54:02.474Z,28.40
2018-12-16T06:54:58.317Z,30.70
2018-12-16T06:55:58.301Z,28.30
2018-12-16T06:56:58.298Z,28.20
2018-12-16T06:57:58.285Z,30.50
2018-12-16T06:58:58.288Z,29.80
2018-12-16T06:59:58.271Z,29.70
2018-12-16T07:00:58.252Z,32.00
2018-12-16T07:01:58.243Z,31.10
2018-12-16T07:02:58.248Z,31.00
2018-12-16T07:03:58.218Z,29.80
2018-12-16T07:04:58.218Z,30.00
2018-12-16T07:05:58.203Z,28.80
2018-12-16T07:06:58.203Z,28.90
2018-12-16T07:07:58.188Z,28.90
2018-12-16T07:08:58.190Z,28.30
2018-12-16T07:09:58.172Z,31.60
2018-12-16T07:10:58.152Z,28.70
2018-12-16T07:11:58.158Z,27.50
2018-12-16T07:12:58.158Z,28.60
2018-12-16T07:13:58.122Z,28.60
2018-12-16T07:14:58.105Z,28.80
2018-12-16T07:15:58.096Z,29.90
2018-12-16T07:16:58.146Z,31.00
2018-12-16T07:17:58.103Z,30.00
2018-12-16T07:18:58.078Z,28.50
2018-12-16T07:19:58.077Z,28.10
2018-12-16T07:20:58.059Z,27.10
2018-12-16T07:21:58.052Z,30.10
2018-12-16T07:22:58.022Z,31.20
2018-12-16T07:23:58.012Z,26.70
2018-12-16T07:24:58.125Z,28.30
2018-12-16T07:25:58.004Z,29.70
2018-12-16T07:26:57.980Z,27.20
2018-12-16T07:27:58.009Z,27.80
2018-12-16T07:28:57.967Z,28.90
2018-12-16T07:29:58.001Z,32.10
2018-12-16T07:30:57.949Z,27.40
2018-12-16T07:31:57.936Z,28.60
2018-12-16T07:32:57.929Z,29.20
2018-12-16T07:33:57.908Z,28.90
2018-12-16T07:34:57.913Z,28.90
2018-12-16T07:35:57.904Z,27.00
2018-12-16T07:36:57.876Z,30.70
2018-12-16T07:37:57.865Z,30.40
2018-12-16T07:38:57.852Z,33.20
2018-12-16T07:39:57.851Z,31.20
2018-12-16T07:40:57.881Z,30.90
2018-12-16T07:41:57.832Z,30.10
2018-12-16T07:42:57.824Z,26.50
2018-12-16T07:43:57.805Z,29.70
2018-12-16T07:44:57.798Z,28.20
2018-12-16T07:45:57.806Z,29.60
2018-12-16T07:46:57.778Z,27.70
2018-12-16T07:47:57.769Z,31.10
2018-12-16T07:48:57.775Z,30.80
2018-12-16T07:49:57.740Z,32.00
2018-12-16T07:50:57.741Z,29.10
2018-12-16T07:51:57.751Z,30.50
2018-12-16T07:52:57.718Z,30.20
2018-12-16T07:53:57.735Z,29.50
2018-12-16T07:54:57.700Z,28.80
2018-12-16T07:55:57.714Z,29.70
2018-12-16T07:56:57.680Z,29.30
2018-12-16T07:57:57.655Z,29.30
2018-12-16T07:58:57.677Z,29.10
2018-12-16T07:59:57.640Z,32.20
2018-12-16T08:00:57.632Z,30.00
2018-12-16T08:01:57.647Z,29.00
2018-12-16T08:02:57.620Z,29.60
2018-12-16T08:03:57.615Z,31.60
2018-12-16T08:04:57.597Z,28.90
2018-12-16T08:05:57.580Z,32.30
2018-12-16T08:06:57.569Z,28.70
2018-12-16T08:07:57.566Z,31.60
2018-12-16T08:08:57.545Z,28.80
2018-12-16T08:09:57.528Z,29.20
2018-12-16T08:10:57.523Z,28.60
2018-12-16T08:11:57.511Z,28.70
2018-12-16T08:12:57.557Z,27.60
2018-12-16T08:13:57.496Z,28.80
2018-12-16T08:14:57.477Z,29.70
2018-12-16T08:15:57.477Z,29.60
2018-12-16T08:16:57.476Z,30.30
2018-12-16T08:17:57.456Z,29.70
2018-12-16T08:18:57.440Z,29.30
2018-12-16T08:19:57.430Z,27.90
2018-12-16T08:20:57.418Z,29.10
2018-12-16T08:21:57.403Z,27.90
2018-12-16T08:22:57.408Z,31.00
2018-12-16T08:23:57.386Z,29.70
2018-12-16T08:24:57.377Z,29.30
2018-12-16T08:25:57.403Z,29.90
2018-12-16T08:26:57.364Z,29.70
2018-12-16T08:27:57.359Z,31.20
2018-12-16T08:28:57.406Z,30.30
2018-12-16T08:29:57.374Z,30.60
2018-12-16T08:30:57.318Z,30.20
2018-12-16T08:31:57.305Z,27.40
2018-12-16T08:32:57.302Z,30.10
2018-12-16T08:33:57.281Z,29.60
2018-12-16T08:34:57.271Z,30.40
2018-12-16T08:35:57.262Z,29.20
2018-12-16T08:36:57.258Z,32.20
2018-12-16T08:37:57.268Z,27.30
2018-12-16T08:38:57.243Z,27.00
2018-12-16T08:39:57.224Z,29.10
2018-12-16T08:40:57.209Z,27.10
2018-12-16T08:41:57.206Z,31.40
2018-12-16T08:42:57.208Z,31.20
2018-12-16T08:43:57.179Z,31.10
2018-12-16T08:44:57.171Z,28.90
2018-12-16T08:45:57.166Z,28.40
2018-12-16T08:46:57.146Z,31.90
2018-12-16T08:47:57.149Z,31.30
2018-12-16T08:48:57.159Z,26.70
2018-12-16T08:49:57.122Z,30.40
2018-12-16T08:50:57.112Z,28.80
2018-12-16T08:51:57.098Z,30.60
2018-12-16T08:52:57.095Z,27.40
2018-12-16T08:53:57.078Z,29.00
2018-12-16T08:54:57.069Z,31.30
2018-12-16T08:55:57.930Z,27.80
2018-12-16T08:56:57.046Z,32.10
2018-12-16T08:57:57.055Z,29.90
2018-12-16T08:58:57.050Z,29.20
2018-12-16T08:59:57.027Z,29.30
2018-12-16T09:00:57.005Z,31.20
2018-12-16T09:01:56.990Z,27.90
2018-12-16T09:02:56.994Z,29.30
2018-12-16T09:03:56.992Z,27.70
2018-12-16T09:04:56.966Z,31.80
2018-12-16T09:05:56.947Z,29.50
2018-12-16T09:06:56.937Z,29.30
2018-12-16T09:07:56.930Z,33.60
2018-12-16T09:08:56.954Z,31.30
2018-12-16T09:09:56.915Z,28.20
2018-12-16T09:10:56.908Z,29.20
2018-12-16T09:11:56.901Z,31.90
2018-12-16T09:12:56.879Z,31.70
2018-12-16T09:13:56.879Z,31.00
2018-12-16T09:14:56.853Z,29.50
2018-12-16T09:15:56.848Z,29.10
2018-12-16T09:16:56.839Z,28.20
2018-12-16T09:17:56.843Z,29.30
2018-12-16T09:18:56.824Z,29.90
2018-12-16T09:19:56.805Z,27.20
2018-12-16T09:20:56.827Z,29.70
2018-12-16T09:21:56.797Z,28.30
2018-12-16T09:22:56.795Z,29.30
2018-12-16T09:23:56.784Z,30.60
2018-12-16T09:24:56.755Z,31.50
2018-12-16T09:25:56.752Z,27.80
2018-12-16T09:26:56.732Z,28.90
2018-12-16T09:27:56.724Z,29.30
2018-12-16T09:28:56.715Z,29.30
2018-12-16T09:29:56.707Z,29.50
2018-12-16T09:30:58.145Z,28.70
2018-12-16T09:31:56.706Z,26.50
2018-12-16T09:32:56.671Z,27.60
2018-12-16T09:33:56.657Z,27.00
2018-12-16T09:34:56.672Z,29.10
2018-12-16T09:35:56.641Z,30.30
2018-12-16T09:36:56.629Z,27.00
2018-12-16T09:37:56.616Z,28.30
2018-12-16T09:38:56.680Z,27.70
2018-12-16T09:39:56.619Z,36.60
2018-12-16T09:40:56.590Z,26.80
2018-12-16T09:41:56.586Z,26.90
2018-12-16T09:42:56.571Z,27.40
2018-12-16T09:43:56.559Z,25.90
2018-12-16T09:44:56.578Z,27.50
2018-12-16T09:45:56.533Z,31.40
2018-12-16T09:46:56.530Z,31.40
2018-12-16T09:47:56.516Z,29.00
2018-12-16T09:48:56.506Z,31.30
2018-12-16T09:49:56.509Z,29.80
2018-12-16T09:50:56.480Z,27.10
2018-12-16T09:51:56.543Z,30.30
2018-12-16T09:52:56.489Z,32.70
2018-12-16T09:53:56.459Z,27.80
2018-12-16T09:54:56.468Z,30.20
2018-12-16T09:55:56.434Z,27.10
2018-12-16T09:56:56.431Z,27.90
2018-12-16T09:57:56.407Z,29.00
2018-12-16T09:58:56.403Z,27.50
2018-12-16T09:59:56.388Z,26.50
2018-12-16T10:00:56.392Z,29.20
2018-12-16T10:01:56.374Z,28.90
2018-12-16T10:02:56.365Z,30.90
2018-12-16T10:03:56.351Z,29.10
2018-12-16T10:04:56.350Z,29.30
2018-12-16T10:05:56.334Z,28.30
2018-12-16T10:06:56.322Z,28.80
2018-12-16T10:07:56.330Z,28.60
2018-12-16T10:08:56.297Z,27.70
2018-12-16T10:09:56.282Z,28.60
2018-12-16T10:10:56.285Z,28.00
2018-12-16T10:11:56.266Z,28.30
2018-12-16T10:12:56.256Z,29.70
2018-12-16T10:13:56.248Z,30.10
2018-12-16T10:14:56.245Z,28.70
2018-12-16T10:15:56.240Z,27.40
2018-12-16T10:16:56.220Z,26.30
2018-12-16T10:17:56.219Z,28.70
2018-12-16T10:18:56.186Z,26.90
2018-12-16T10:19:56.178Z,25.40
2018-12-16T10:20:56.171Z,27.50
2018-12-16T10:21:56.174Z,30.30
2018-12-16T10:22:56.145Z,29.20
2018-12-16T10:23:56.137Z,27.70
2018-12-16T10:24:56.129Z,30.30
2018-12-16T10:25:56.122Z,25.50
2018-12-16T10:26:56.121Z,26.10
2018-12-16T10:27:56.100Z,29.60
2018-12-16T10:28:56.092Z,28.00
2018-12-16T10:29:56.070Z,27.30
2018-12-16T10:30:56.109Z,27.50
2018-12-16T10:31:56.113Z,27.00
2018-12-16T10:32:56.047Z,25.70
2018-12-16T10:33:56.039Z,27.40
2018-12-16T10:34:56.026Z,27.40
2018-12-16T10:35:56.014Z,26.00
2018-12-16T10:36:56.013Z,26.90
2018-12-16T10:37:55.986Z,29.40
2018-12-16T10:38:55.986Z,27.90
2018-12-16T10:39:55.971Z,29.50
2018-12-16T10:40:55.968Z,26.40
2018-12-16T10:41:55.960Z,25.90
2018-12-16T10:42:55.934Z,28.60
2018-12-16T10:43:55.925Z,29.00
2018-12-16T10:44:55.921Z,27.70
2018-12-16T10:45:55.910Z,26.40
2018-12-16T10:46:55.900Z,30.00
2018-12-16T10:47:55.898Z,26.20
2018-12-16T10:48:55.873Z,28.50
2018-12-16T10:49:55.860Z,25.40
2018-12-16T10:50:55.871Z,27.50
2018-12-16T10:51:55.844Z,25.50
2018-12-16T10:52:55.849Z,28.20
2018-12-16T10:53:55.826Z,27.50
2018-12-16T10:54:58.540Z,27.40
2018-12-16T10:55:55.800Z,26.60
2018-12-16T10:56:55.794Z,27.40
2018-12-16T10:57:55.799Z,26.30
2018-12-16T10:58:55.773Z,29.00
2018-12-16T10:59:55.760Z,27.90
2018-12-16T11:00:55.748Z,25.80
2018-12-16T11:01:55.735Z,28.90
2018-12-16T11:02:55.739Z,26.60
2018-12-16T11:03:55.738Z,29.20
2018-12-16T11:04:55.709Z,27.80
2018-12-16T11:05:55.700Z,28.00
2018-12-16T11:06:55.690Z,29.20
2018-12-16T11:07:55.678Z,29.30
2018-12-16T11:08:55.675Z,26.40
2018-12-16T11:09:55.652Z,29.30
2018-12-16T11:10:55.675Z,30.20
2018-12-16T11:11:55.655Z,31.50
2018-12-16T11:12:55.657Z,26.70
2018-12-16T11:13:55.639Z,28.60
2018-12-16T11:14:55.605Z,29.00
2018-12-16T11:15:55.602Z,27.40
2018-12-16T11:16:55.587Z,29.00
2018-12-16T11:17:55.585Z,29.60
2018-12-16T11:18:55.579Z,28.10
2018-12-16T11:19:55.602Z,27.50
2018-12-16T11:20:55.679Z,29.70
2018-12-16T11:21:55.604Z,29.00
2018-12-16T11:22:55.527Z,29.50
2018-12-16T11:23:56.967Z,29.00
2018-12-16T11:24:55.523Z,27.70
2018-12-16T11:25:55.491Z,27.70
2018-12-16T11:26:55.482Z,29.60
2018-12-16T11:27:55.467Z,28.80
2018-12-16T11:28:55.467Z,28.60
2018-12-16T11:29:55.449Z,31.00
2018-12-16T11:30:55.439Z,30.40
2018-12-16T11:31:55.427Z,27.90
2018-12-16T11:32:55.421Z,28.40
2018-12-16T11:33:55.412Z,31.60
2018-12-16T11:34:55.388Z,29.20
2018-12-16T11:35:55.380Z,29.30
2018-12-16T11:36:55.393Z,28.20
2018-12-16T11:37:55.375Z,30.60
2018-12-16T11:38:55.357Z,30.10
2018-12-16T11:39:55.355Z,30.50
2018-12-16T11:40:55.342Z,28.00
2018-12-16T11:41:55.313Z,28.40
2018-12-16T11:42:55.332Z,30.00
2018-12-16T11:43:55.310Z,29.30
2018-12-16T11:44:55.285Z,30.60
2018-12-16T11:45:55.272Z,30.50
2018-12-16T11:46:55.261Z,30.60
2018-12-16T11:47:55.252Z,32.00
2018-12-16T11:48:55.261Z,30.10
2018-12-16T11:49:55.252Z,30.30
2018-12-16T11:50:55.227Z,29.70
2018-12-16T11:51:55.217Z,30.90
2018-12-16T11:52:55.198Z,29.60
2018-12-16T11:53:55.192Z,31.20
2018-12-16T11:54:55.197Z,31.20
2018-12-16T11:55:55.166Z,28.40
2018-12-16T11:56:55.167Z,32.30
2018-12-16T11:57:55.152Z,32.00
2018-12-16T11:58:55.138Z,34.30
2018-12-16T11:59:55.145Z,28.30
2018-12-16T12:00:55.137Z,31.60
2018-12-16T12:01:55.109Z,33.40
2018-12-16T12:02:55.098Z,30.60
2018-12-16T12:03:55.091Z,30.70
2018-12-16T12:04:55.072Z,30.20
2018-12-16T12:05:55.065Z,30.20
2018-12-16T12:06:55.068Z,32.40
2018-12-16T12:07:55.041Z,29.70
2018-12-16T12:08:55.041Z,29.70
2018-12-16T12:09:55.063Z,30.10
2018-12-16T12:10:55.085Z,33.90
2018-12-16T12:11:56.415Z,31.70
2018-12-16T12:12:54.999Z,29.10
2018-12-16T12:13:54.985Z,32.10
2018-12-16T12:14:54.990Z,30.00
2018-12-16T12:15:54.971Z,32.10
2018-12-16T12:16:54.952Z,31.20
2018-12-16T12:17:54.942Z,30.40
2018-12-16T12:18:54.934Z,31.40
2018-12-16T12:19:54.918Z,28.70
2018-12-16T12:20:54.929Z,32.70
2018-12-16T12:21:54.923Z,30.00
2018-12-16T12:22:54.899Z,33.30
2018-12-16T12:24:01.996Z,29.40
2018-12-16T12:24:54.870Z,34.00
2018-12-16T12:25:54.856Z,31.10
2018-12-16T12:26:54.854Z,33.30
2018-12-16T12:27:54.853Z,32.90
2018-12-16T12:28:54.826Z,33.50
2018-12-16T12:29:54.824Z,30.80
2018-12-16T12:30:54.850Z,32.00
2018-12-16T12:31:54.812Z,32.10
2018-12-16T12:32:54.805Z,33.80
2018-12-16T12:33:54.791Z,32.00
2018-12-16T12:34:54.773Z,33.00
2018-12-16T12:35:54.758Z,31.60
2018-12-16T12:36:54.811Z,28.80
2018-12-16T12:37:54.733Z,28.70
2018-12-16T12:38:54.755Z,30.20
2018-12-16T12:39:54.730Z,33.80
2018-12-16T12:40:54.720Z,30.40
2018-12-16T12:41:54.717Z,30.90
2018-12-16T12:42:54.690Z,32.60
2018-12-16T12:43:54.706Z,38.00
2018-12-16T12:44:54.668Z,31.00
2018-12-16T12:45:54.659Z,32.40
2018-12-16T12:46:54.686Z,31.20
2018-12-16T12:47:54.637Z,31.40
2018-12-16T12:48:54.623Z,31.10
2018-12-16T12:49:54.628Z,33.50
2018-12-16T12:50:54.608Z,32.80
2018-12-16T12:51:54.619Z,31.30
2018-12-16T12:52:54.585Z,33.50